Accueil
METAR-TAF:

METAR-TAF

Aéroports :

Skyhaven Airport

Rochester, New Hampshire, États-Unis

latitude: 43-16-41N, longitude: 070-55-20W, altitude: 98 m

Observation

Le bulletin a été fait il y a 36 minutes, à 19:51 UTC
Vent 17 kt de nord-ouest avec des rafales jusqu'à 22 kt
Température 4°C
Humidité 70%
Pression 987 hPa
Visibilité: 16.1 km
Quelques nuages à une hauteur de 2900 ft
Nuages fragmentés à une hauteur de 4800 ft
Ciel couvert à une hauteur de 6500 ft

METAR: KDAW 101951Z AUTO 31017G22KT 10SM FEW029 BKN048 OVC065 04/M01 A2915 RMK AO2 PK WND 31035/1930 RAE05B29E43 SLP869 P0000 T00441011

Heure: 16:27 (20:27 UTC)


TAF: absent

Observations et prévisions météorologiques de plus de 4000 aéroports (messages METAR et TAF).

Les stations disponibles sont représentées par des disques jaunes et rouges sur la carte.

Passer la souris dessus pour voir le nom de la station.

Cliquer dessus pour voir les observations et prévisions météorologiques.

Pour changer de carte: cliquez sur les boutons verts avec une croix noire pour zoomer, sur le bouton vert avec un tiret pour effectuer un zoom arrière, ou sur les flèches vertes pour les cartes adjacentes.


METAR-TAF: